Time;durP1;ratioP1;P1;durP2;ratioP2;P2;SDS_P1;SDS_P2;PMS_P1;PMS_P2;Temp;Humidity;BMP_temperature;BMP_pressure;BME280_temperature;BME280_humidity;BME280_pressure;Samples;Min_cycle;Max_cycle;Signal;HPM_P1;HPM_P2
2023/04/08 07:23:16;;;;;;;24.92;19.23;;;;;;;-145.79;90.17;78916.41;5306715;27;20345;-82
2023/04/08 07:25:47;;;;;;;22.08;18.27;;;;;;;-145.79;90.06;78907.94;5301151;28;20042;-83
2023/04/08 07:28:19;;;;;;;23.85;18.92;;;;;;;-145.79;87.96;78922.78;5301002;28;20107;-84
2023/04/08 07:30:50;;;;;;;23.60;20.13;;;;;;;-145.79;89.21;78895.22;5301600;28;20053;-84
2023/04/08 07:33:22;;;;;;;24.02;19.17;;;;;;;-145.79;87.06;78916.41;5301160;28;20555;-84
2023/04/08 07:35:53;;;;;;;21.98;18.90;;;;;;;-145.79;87.74;78907.94;5300443;28;20058;-79
2023/04/08 07:38:25;;;;;;;21.35;19.05;;;;;;;-145.79;86.62;78927.03;5300891;28;20020;-79
2023/04/08 07:40:56;;;;;;;21.77;19.38;;;;;;;-145.79;86.50;78937.63;5301349;28;20508;-79
2023/04/08 07:43:27;;;;;;;19.95;17.67;;;;;;;-145.79;86.43;78929.16;5300671;28;20021;-79
2023/04/08 07:46:03;;;;;;;23.65;20.17;;;;;;;-145.79;86.50;78950.34;5300306;28;20090;-78
2023/04/08 07:48:34;;;;;;;;;;;;;;;-145.79;87.37;78914.31;5301727;28;20044;-79
2023/04/08 07:51:08;;;;;;;22.50;18.30;;;;;;;-145.79;87.14;78897.34;5299941;28;19939;-82
2023/04/08 07:53:39;;;;;;;19.33;17.20;;;;;;;-145.79;86.54;78916.41;5300334;28;20085;-79
2023/04/08 07:56:15;;;;;;;18.42;16.52;;;;;;;-145.79;84.91;78916.41;5300198;28;20375;-77
2023/04/08 07:58:46;;;;;;;21.92;18.05;;;;;;;-145.79;84.83;78912.19;5299073;28;20063;-77
2023/04/08 08:01:20;;;;;;;19.77;17.70;;;;;;;-145.79;86.52;78893.09;5300507;28;20468;-75
2023/04/08 08:03:51;;;;;;;22.52;19.80;;;;;;;-145.79;87.09;78895.22;5299604;28;20032;-76
2023/04/08 08:06:31;;;;;;;23.52;19.70;;;;;;;-145.79;85.99;78901.56;5299291;28;20127;-77
2023/04/08 08:09:02;;;;;;;21.08;18.63;;;;;;;-145.79;86.60;78895.22;5300426;28;20107;-78
2023/04/08 08:11:33;;;;;;;21.55;19.23;;;;;;;-145.79;85.93;78888.84;5298144;28;20103;-76
2023/04/08 08:14:05;;;;;;;20.17;17.52;;;;;;;-145.79;86.46;78869.78;5299920;28;20060;-76
2023/04/08 08:16:37;;;;;;;21.20;17.45;;;;;;;-145.79;86.59;78848.56;5299408;28;20113;-76
2023/04/08 08:19:09;;;;;;;20.77;18.58;;;;;;;-145.79;84.22;78893.09;5299345;28;20035;-75
2023/04/08 08:21:40;;;;;;;21.42;17.90;;;;;;;-145.79;84.88;78882.50;5307970;28;20047;-75
2023/04/08 08:24:11;;;;;;;19.60;17.50;;;;;;;-145.79;85.08;78871.91;5320929;28;20065;-74
2023/04/08 08:26:44;;;;;;;21.58;18.58;;;;;;;-145.79;84.16;78899.47;5320551;28;20323;-76
2023/04/08 08:29:15;;;;;;;20.00;16.90;;;;;;;-145.79;84.34;78890.97;5322218;28;20480;-75
2023/04/08 08:31:47;;;;;;;18.13;16.23;;;;;;;-145.79;84.03;78888.84;5321831;28;20093;-78
2023/04/08 08:34:18;;;;;;;19.73;17.05;;;;;;;-145.79;84.00;78895.22;5312518;28;20028;-75
2023/04/08 08:36:50;;;;;;;18.92;16.98;;;;;;;-145.79;83.22;78899.47;5310646;28;20089;-74
2023/04/08 08:39:21;;;;;;;18.40;16.48;;;;;;;-145.79;82.69;78907.94;5308293;28;20024;-75
2023/04/08 08:41:53;;;;;;;17.90;16.00;;;;;;;-145.79;82.00;78895.22;5306601;28;20031;-74
2023/04/08 08:44:24;;;;;;;17.60;15.70;;;;;;;-145.79;83.07;78863.41;5306255;28;20016;-78
2023/04/08 08:46:56;;;;;;;28.48;24.38;;;;;;;-145.79;82.46;78886.75;5305683;28;20020;-77
2023/04/08 08:49:27;;;;;;;21.50;18.48;;;;;;;-145.79;82.32;78874.00;5305793;28;20085;-76
2023/04/08 08:51:59;;;;;;;20.80;18.33;;;;;;;-145.79;82.16;78880.38;5306460;28;20032;-75
2023/04/08 08:54:30;;;;;;;20.13;18.02;;;;;;;-145.79;81.74;78878.25;5304681;28;20034;-77
2023/04/08 08:57:01;;;;;;;20.35;18.25;;;;;;;-145.79;82.09;78857.06;5306373;28;20026;-76
2023/04/08 08:59:33;;;;;;;18.98;16.98;;;;;;;-145.79;82.21;78857.06;5306663;28;20045;-77
2023/04/08 09:02:22;;;;;;;32.88;29.38;;;;;;;-145.79;82.23;78865.53;5305476;28;20031;-77
2023/04/08 09:05:02;;;;;;;24.02;21.15;;;;;;;-145.79;82.08;78871.91;5306571;28;20020;-75
2023/04/08 09:07:35;;;;;;;20.25;18.08;;;;;;;-145.79;82.17;78880.38;5305229;28;20066;-77
2023/04/08 09:10:08;;;;;;;21.23;17.92;;;;;;;-145.79;80.93;78878.25;5306349;28;20020;-77
2023/04/08 09:13:08;;;;;;;18.90;16.70;;;;;;;-145.79;81.92;78846.44;5305410;28;20028;-76
2023/04/08 09:16:03;;;;;;;20.92;18.73;;;;;;;-145.79;82.22;78861.28;5296030;28;20089;-78
2023/04/08 09:18:39;;;;;;;21.02;18.70;;;;;;;-145.79;81.56;78867.66;5296524;28;20032;-77
2023/04/08 09:21:12;;;;;;;57.03;23.10;;;;;;;-145.79;80.80;78897.34;5304475;28;20055;-76
2023/04/08 09:23:48;;;;;;;21.15;17.73;;;;;;;-145.79;81.90;78871.91;5305236;28;20028;-78
2023/04/08 09:26:22;;;;;;;21.77;19.45;;;;;;;-145.79;82.47;78874.00;5304449;28;20122;-78
2023/04/08 09:29:04;;;;;;;23.77;20.90;;;;;;;-145.79;82.88;78878.25;5304209;28;20390;-76
2023/04/08 09:31:40;;;;;;;23.75;21.20;;;;;;;-145.79;82.29;78876.13;5305406;28;20562;-76
2023/04/08 09:34:16;;;;;;;29.80;25.08;;;;;;;-145.79;83.34;78865.53;5305528;28;20035;-75
2023/04/08 09:36:48;;;;;;;23.77;21.27;;;;;;;-145.79;82.56;78871.91;5304499;28;20121;-78
2023/04/08 09:39:20;;;;;;;23.13;20.70;;;;;;;-145.79;82.48;78893.09;5305597;28;20146;-79
2023/04/08 09:41:51;;;;;;;23.38;20.88;;;;;;;-145.79;82.54;78884.63;5304992;28;20115;-76
2023/04/08 09:44:27;;;;;;;26.40;23.52;;;;;;;-145.79;82.36;78857.06;5303519;28;20028;-77
2023/04/08 09:47:11;;;;;;;25.27;21.75;;;;;;;-145.79;82.14;78874.00;5294355;28;20105;-78
2023/04/08 09:49:48;;;;;;;22.35;20.00;;;;;;;-145.79;82.04;78865.53;5304378;28;20118;-79
2023/04/08 09:52:27;;;;;;;49.95;26.38;;;;;;;-145.79;82.31;78844.31;5304232;28;20039;-74
2023/04/08 09:55:03;;;;;;;22.92;20.05;;;;;;;-145.79;80.75;78886.75;5305090;28;20032;-74
2023/04/08 09:57:42;;;;;;;;;;;;;;;-145.79;82.29;78844.31;5302509;28;20028;-75
2023/04/08 10:00:16;;;;;;;24.00;20.35;;;;;;;-145.79;81.62;78852.81;5302702;28;19947;-75
2023/04/08 10:02:55;;;;;;;24.38;20.63;;;;;;;-145.79;81.20;78857.06;5304514;28;20052;-74
2023/04/08 10:05:28;;;;;;;22.50;19.73;;;;;;;-145.79;81.43;78859.16;5304573;28;20106;-70
2023/04/08 10:07:59;;;;;;;24.33;21.83;;;;;;;-145.79;80.09;78884.63;5304508;28;20032;-74
2023/04/08 10:10:32;;;;;;;21.30;19.08;;;;;;;-145.79;80.86;78871.91;5303356;28;20081;-73
2023/04/08 10:13:05;;;;;;;21.95;19.75;;;;;;;-145.79;79.96;78880.38;5304479;28;20471;-74
2023/04/08 10:15:39;;;;;;;22.55;20.17;;;;;;;-145.79;79.92;78895.22;5304024;28;20032;-74
2023/04/08 10:18:11;;;;;;;21.58;19.40;;;;;;;-145.79;80.69;78867.66;5303458;28;20028;-73
2023/04/08 10:20:43;;;;;;;20.17;18.17;;;;;;;-145.79;79.88;78878.25;5304717;28;20039;-73
2023/04/08 10:23:17;;;;;;;22.05;19.85;;;;;;;-145.79;80.00;78890.97;5304314;28;20417;-73
2023/04/08 10:25:48;;;;;;;20.45;18.38;;;;;;;-145.79;79.81;78888.84;5303789;28;20027;-74
2023/04/08 10:28:21;;;;;;;21.05;18.85;;;;;;;-145.79;80.70;78840.09;5304154;28;20024;-75
2023/04/08 10:30:56;;;;;;;20.60;18.67;;;;;;;-145.79;80.06;78863.41;5303446;28;20040;-76
2023/04/08 10:33:33;;;;;;;20.55;18.45;;;;;;;-145.79;80.05;78844.31;5303610;28;20064;-75
2023/04/08 10:36:12;;;;;;;31.13;28.13;;;;;;;-145.79;80.06;78812.53;5304180;28;20028;-74
2023/04/08 10:38:43;;;;;;;20.60;18.60;;;;;;;-145.79;78.37;78840.09;5302864;28;20043;-77
2023/04/08 10:41:23;;;;;;;25.77;23.23;;;;;;;-145.79;79.28;78814.63;5304403;28;20507;-73
2023/04/08 10:43:54;;;;;;;21.52;19.33;;;;;;;-145.79;78.99;78810.41;5303493;28;20155;-73
2023/04/08 10:46:36;;;;;;;33.40;29.85;;;;;;;-145.79;78.44;78797.69;5303284;28;20091;-74
2023/04/08 10:49:07;;;;;;;19.90;17.98;;;;;;;-145.79;77.44;78801.91;5303888;28;20502;-73
2023/04/08 10:51:40;;;;;;;20.55;18.65;;;;;;;-145.79;76.99;78835.84;5304078;28;20019;-75
2023/04/08 10:54:14;;;;;;;21.52;19.38;;;;;;;-145.79;77.70;78831.59;5302730;28;20352;-74
2023/04/08 10:56:48;;;;;;;20.50;18.60;;;;;;;-145.79;77.47;78808.28;5304080;28;20375;-76
2023/04/08 10:59:30;;;;;;;21.02;18.88;;;;;;;-145.79;78.75;78748.91;5302405;28;20039;-76
2023/04/08 11:02:02;;;;;;;27.67;24.90;;;;;;;-145.79;77.65;78746.78;5297182;28;20024;-75
2023/04/08 11:04:41;;;;;;;20.58;18.52;;;;;;;-145.79;76.91;78723.47;5282703;28;20043;-76
2023/04/08 11:07:14;;;;;;;19.25;17.40;;;;;;;-145.79;74.04;78765.88;5281913;28;20036;-73
2023/04/08 11:09:45;;;;;;;35.05;31.60;;;;;;;-145.79;75.44;78714.97;5282900;28;20035;-74
2023/04/08 11:12:17;;;;;;;20.70;18.80;;;;;;;-145.79;75.03;78714.97;5283108;28;20099;-75
2023/04/08 11:14:51;;;;;;;22.00;19.90;;;;;;;-145.79;74.97;78725.59;5289764;28;20016;-77
2023/04/08 11:17:22;;;;;;;20.75;18.75;;;;;;;-145.79;73.77;78738.31;5302448;28;20028;-73
2023/04/08 11:19:54;;;;;;;34.55;30.83;;;;;;;-145.79;74.35;78723.47;5302594;28;20106;-73
2023/04/08 11:22:26;;;;;;;23.45;21.10;;;;;;;-145.79;75.32;78687.41;5301205;28;20040;-75
2023/04/08 11:24:58;;;;;;;20.63;18.60;;;;;;;-145.79;72.56;78695.91;5303706;28;20051;-74
2023/04/08 11:27:30;;;;;;;20.77;18.73;;;;;;;-145.79;71.92;78685.31;5302632;28;20051;-75
2023/04/08 11:30:02;;;;;;;37.75;33.85;;;;;;;-145.79;72.70;78683.19;5302525;28;20024;-74
2023/04/08 11:32:35;;;;;;;21.25;19.15;;;;;;;-145.79;71.52;78674.69;5303399;28;20020;-71
2023/04/08 11:35:07;;;;;;;21.50;19.35;;;;;;;-145.79;71.30;78668.34;5301928;28;20604;-78
2023/04/08 11:37:39;;;;;;;21.42;19.42;;;;;;;-145.79;70.47;78683.19;5303569;28;20103;-76
2023/04/08 11:40:12;;;;;;;19.50;17.70;;;;;;;-145.79;70.54;78678.94;5303494;28;20047;-76
2023/04/08 11:42:43;;;;;;;20.52;18.52;;;;;;;-145.79;70.60;78653.50;5302088;28;20487;-75
2023/04/08 11:45:15;;;;;;;19.67;17.77;;;;;;;-145.79;69.84;78651.38;5302801;28;20118;-75
2023/04/08 11:47:47;;;;;;;20.80;18.80;;;;;;;-145.79;70.17;78636.53;5303483;28;20028;-76
2023/04/08 11:50:23;;;;;;;20.00;18.05;;;;;;;-145.79;69.06;78642.91;5302776;28;20035;-76
2023/04/08 11:52:55;;;;;;;19.73;17.70;;;;;;;-145.79;68.35;78642.91;5302589;28;20051;-75
2023/04/08 11:55:29;;;;;;;21.02;19.10;;;;;;;-145.79;67.78;78632.28;5303098;28;20051;-76
2023/04/08 11:58:04;;;;;;;19.95;18.15;;;;;;;-145.79;66.16;78589.88;5302715;28;20016;-78
2023/04/08 12:00:37;;;;;;;18.58;16.75;;;;;;;-145.79;65.16;78560.19;5303237;28;20103;-75
2023/04/08 12:03:09;;;;;;;19.70;17.70;;;;;;;-145.79;64.49;78553.84;5302470;28;20422;-76
2023/04/08 12:05:41;;;;;;;18.38;16.67;;;;;;;-145.79;63.62;78517.81;5302273;28;20467;-76
2023/04/08 12:08:12;;;;;;;18.85;17.05;;;;;;;-145.79;64.63;78528.41;5304051;28;20020;-73
2023/04/08 12:10:44;;;;;;;18.13;16.27;;;;;;;-145.79;64.03;78515.69;5305128;28;20488;-73
2023/04/08 12:13:15;;;;;;;18.73;16.83;;;;;;;-145.79;62.65;78511.44;5305391;28;20384;-72
2023/04/08 12:15:46;;;;;;;40.22;36.30;;;;;;;-145.79;59.29;78500.84;5306528;28;20085;-72
2023/04/08 12:18:18;;;;;;;22.25;20.35;;;;;;;-145.79;62.13;78479.63;5306072;28;20395;-72
2023/04/08 12:20:49;;;;;;;19.75;17.95;;;;;;;-145.79;61.91;78466.91;5306588;28;20539;-75
2023/04/08 12:23:21;;;;;;;19.27;17.25;;;;;;;-145.79;61.48;78469.03;5306966;28;20336;-73
2023/04/08 12:25:52;;;;;;;20.48;18.67;;;;;;;-145.79;62.42;78445.72;5305521;28;20785;-74
2023/04/08 12:28:23;;;;;;;18.33;16.55;;;;;;;-145.79;62.58;78424.50;5305851;28;20028;-71
2023/04/08 12:30:55;;;;;;;14.48;13.07;;;;;;;-145.79;54.69;78447.84;5304383;28;20039;-71
2023/04/08 12:33:26;;;;;;;16.00;14.50;;;;;;;-145.79;54.90;78433.00;5306565;28;20375;-71
2023/04/08 12:35:58;;;;;;;17.88;16.23;;;;;;;-145.79;54.18;78430.88;5306659;28;20028;-72
2023/04/08 12:38:29;;;;;;;16.73;15.20;;;;;;;-145.79;54.00;78441.47;5305230;28;20054;-71
2023/04/08 12:41:00;;;;;;;15.48;14.13;;;;;;;-145.79;54.85;78426.63;5306115;28;20032;-74
2023/04/08 12:43:33;;;;;;;19.27;16.90;;;;;;;-145.79;54.02;78405.44;5305935;28;20028;-72
2023/04/08 12:46:04;;;;;;;16.02;14.57;;;;;;;-145.79;54.16;78386.34;5305374;28;20127;-73
2023/04/08 12:48:36;;;;;;;16.17;14.65;;;;;;;-145.79;52.90;78377.88;5306576;28;20103;-72
2023/04/08 12:51:09;;;;;;;15.10;13.40;;;;;;;-145.79;53.61;78343.94;5304426;28;20020;-72
2023/04/08 12:53:40;;;;;;;14.90;13.50;;;;;;;-145.79;51.01;78367.25;5297401;28;20024;-73
2023/04/08 12:56:11;;;;;;;13.50;12.15;;;;;;;-145.79;52.07;78333.34;5306085;28;20077;-73
2023/04/08 12:58:42;;;;;;;13.65;12.35;;;;;;;-145.79;50.44;78339.69;5304092;28;20029;-73
2023/04/08 13:01:14;;;;;;;14.30;12.85;;;;;;;-145.79;51.66;78305.78;5303858;28;20028;-74
2023/04/08 13:03:46;;;;;;;23.10;20.80;;;;;;;-145.79;49.70;78303.66;5305298;28;20038;-74
2023/04/08 13:06:17;;;;;;;15.70;14.30;;;;;;;-145.79;49.90;78284.56;5305187;28;20030;-73
2023/04/08 13:08:49;;;;;;;14.65;13.40;;;;;;;-145.79;49.32;78273.97;5306051;28;20020;-72
2023/04/08 13:11:20;;;;;;;14.05;12.65;;;;;;;-145.79;48.05;78267.63;5305818;28;20024;-73
2023/04/08 13:13:52;;;;;;;14.73;13.40;;;;;;;-145.79;47.94;78276.09;5301554;28;20028;-73
2023/04/08 13:16:23;;;;;;;12.23;11.05;;;;;;;-145.79;46.95;78250.66;5286122;28;20038;-72
2023/04/08 13:18:54;;;;;;;12.73;11.65;;;;;;;-145.79;47.43;78225.22;5304659;28;20471;-72
2023/04/08 13:21:26;;;;;;;52.60;47.08;;;;;;;-145.79;46.22;78204.00;5303109;28;20051;-72
2023/04/08 13:23:57;;;;;;;15.35;13.95;;;;;;;-145.79;44.77;78197.66;5302718;28;20047;-72
2023/04/08 13:26:28;;;;;;;14.93;13.38;;;;;;;-145.79;46.69;78210.38;5301543;28;20032;-72
2023/04/08 13:29:00;;;;;;;15.73;14.10;;;;;;;-145.79;44.84;78201.91;5301731;28;20020;-72
2023/04/08 13:31:31;;;;;;;14.38;13.18;;;;;;;-145.79;46.19;78195.53;5303648;28;20165;-72
2023/04/08 13:34:02;;;;;;;35.10;31.58;;;;;;;-145.79;46.26;78180.69;5303294;28;20501;-71
2023/04/08 13:36:34;;;;;;;16.42;14.18;;;;;;;-145.79;47.34;78187.06;5301398;28;20078;-74
2023/04/08 13:39:05;;;;;;;14.93;12.30;;;;;;;-145.79;50.03;78208.25;5302692;28;20028;-71
2023/04/08 13:41:36;;;;;;;17.23;15.63;;;;;;;-145.79;48.28;78208.25;5301515;28;20364;-74
2023/04/08 13:44:08;;;;;;;16.05;14.65;;;;;;;-145.79;49.31;78235.81;5289636;28;20025;-71
2023/04/08 13:46:39;;;;;;;13.45;12.15;;;;;;;-145.79;51.52;78244.28;5300389;28;20056;-69
2023/04/08 13:49:10;;;;;;;16.35;14.80;;;;;;;-145.79;49.53;78254.91;5300751;28;20032;-71
2023/04/08 13:51:42;;;;;;;15.55;14.15;;;;;;;-145.79;51.45;78282.47;5293984;28;20369;-70
2023/04/08 13:54:13;;;;;;;18.23;16.52;;;;;;;-145.79;49.77;78310.03;5300357;28;20028;-71
2023/04/08 13:56:44;;;;;;;18.65;16.83;;;;;;;-145.79;52.23;78288.81;5293827;28;20418;-71
2023/04/08 13:59:15;;;;;;;18.02;16.33;;;;;;;-145.79;49.94;78310.03;5287007;28;20036;-73
2023/04/08 14:01:47;;;;;;;17.08;15.48;;;;;;;-145.79;50.45;78307.91;5288103;28;20423;-72
2023/04/08 14:18:38;;;;;;;17.77;16.17;;;;;;;-145.79;51.30;78320.63;5103251;29;20035;-78
2023/04/08 14:21:23;;;;;;;16.50;15.10;;;;;;;-145.79;50.57;78320.63;5133412;28;20675;-78
2023/04/08 14:24:06;;;;;;;15.88;14.48;;;;;;;-145.79;49.19;78322.75;5295276;28;20476;-80
2023/04/08 14:26:51;;;;;;;;;;;;;;;;;;;;;
2023/04/08 14:36:00;;;;;;;19.25;17.13;;;;;;;-145.79;48.13;78331.22;5265619;28;20043;-72
2023/04/08 14:38:32;;;;;;;16.45;14.95;;;;;;;-145.79;49.53;78331.22;5293611;28;20020;-74
2023/04/08 14:41:03;;;;;;;14.77;13.27;;;;;;;-145.79;48.38;78331.22;5293525;28;20466;-73
2023/04/08 14:43:35;;;;;;;15.57;14.07;;;;;;;-145.79;48.21;78326.97;5291219;28;20036;-73
2023/04/08 14:46:06;;;;;;;13.65;12.25;;;;;;;-145.79;46.89;78322.75;5288898;28;20042;-73
2023/04/08 14:48:38;;;;;;;14.30;12.90;;;;;;;-145.79;45.66;78284.56;5288883;28;20379;-76
2023/04/08 14:51:10;;;;;;;12.73;11.52;;;;;;;-145.79;46.06;78259.13;5291501;28;20054;-71
2023/04/08 14:53:41;;;;;;;16.10;14.10;;;;;;;-145.79;45.62;78265.50;5294802;28;20052;-74
2023/04/08 14:56:12;;;;;;;13.60;12.30;;;;;;;-145.79;45.09;78244.28;5289564;28;20028;-74
2023/04/08 14:58:43;;;;;;;16.38;14.77;;;;;;;-145.79;44.01;78225.22;5292590;28;20427;-73
2023/04/08 15:01:15;;;;;;;13.43;12.02;;;;;;;-145.79;44.40;78204.00;5292623;28;20027;-79
2023/04/08 15:03:46;;;;;;;13.90;12.60;;;;;;;-145.79;44.07;78218.84;5292684;28;20041;-80
2023/04/08 15:06:20;;;;;;;13.18;11.77;;;;;;;-145.79;44.42;78212.50;5288221;28;20040;-80
2023/04/08 15:08:52;;;;;;;15.70;12.43;;;;;;;-145.79;45.04;78210.38;5302135;28;20026;-79
2023/04/08 15:11:23;;;;;;;13.25;12.02;;;;;;;-145.79;44.75;78174.34;5302400;28;20166;-81
2023/04/08 15:13:55;;;;;;;12.02;10.98;;;;;;;-145.79;44.61;78157.38;5300911;28;20032;-82
2023/04/08 15:16:26;;;;;;;11.85;10.75;;;;;;;-145.79;43.76;78142.53;5302920;28;20463;-81
2023/04/08 15:18:59;;;;;;;11.55;10.55;;;;;;;-145.79;43.76;78110.72;5303228;28;20391;-81
2023/04/08 15:21:30;;;;;;;12.27;11.18;;;;;;;-145.79;43.54;78085.28;5302380;28;20399;-81
2023/04/08 15:24:01;;;;;;;12.32;11.18;;;;;;;-145.79;42.66;78108.63;5303146;28;20099;-81
2023/04/08 15:26:33;;;;;;;12.10;10.73;;;;;;;-145.79;42.90;78098.00;5301055;28;20467;-77
2023/04/08 15:29:04;;;;;;;12.38;11.18;;;;;;;-145.79;43.53;78068.34;5301718;28;20054;-81
2023/04/08 15:31:36;;;;;;;13.07;11.77;;;;;;;-145.79;43.43;78098.00;5302235;28;20034;-82
2023/04/08 15:34:07;;;;;;;12.95;11.35;;;;;;;-145.79;43.59;78127.69;5300932;28;20024;-80
2023/04/08 15:36:38;;;;;;;13.98;12.68;;;;;;;-145.79;44.06;78142.53;5301914;28;20519;-83
2023/04/08 15:39:10;;;;;;;12.00;10.93;;;;;;;-145.79;43.81;78155.25;5303342;28;20020;-82
2023/04/08 15:41:41;;;;;;;12.15;10.90;;;;;;;-145.79;44.95;78157.38;5302860;28;20493;-82
2023/04/08 15:44:12;;;;;;;13.23;11.93;;;;;;;-145.79;45.28;78161.63;5306796;28;20039;-82
2023/04/08 15:46:44;;;;;;;12.63;11.43;;;;;;;-145.79;44.74;78172.22;5308375;28;20084;-82
2023/04/08 15:49:15;;;;;;;11.93;10.73;;;;;;;-145.79;45.05;78161.63;5307068;28;20028;-80
2023/04/08 15:51:48;;;;;;;14.50;12.25;;;;;;;-145.79;45.20;78157.38;5307769;28;20443;-81
2023/04/08 15:54:20;;;;;;;12.38;11.20;;;;;;;-145.79;44.59;78170.09;5307416;28;20046;-81
2023/04/08 15:56:51;;;;;;;12.05;10.55;;;;;;;-145.79;44.78;78182.81;5306983;28;20032;-80
2023/04/08 15:59:22;;;;;;;12.30;11.20;;;;;;;-145.79;45.34;78176.47;5308030;28;20028;-81
2023/04/08 16:01:53;;;;;;;12.90;11.68;;;;;;;-145.79;45.23;78191.28;5307173;28;20107;-83
2023/04/08 16:04:25;;;;;;;11.38;10.32;;;;;;;-145.79;45.31;78204.00;5307720;28;20106;-75
2023/04/08 16:06:56;;;;;;;12.43;11.23;;;;;;;-145.79;45.51;78216.72;5306879;28;20085;-75
2023/04/08 16:09:29;;;;;;;14.57;13.15;;;;;;;-145.79;45.62;78229.47;5306901;28;20023;-82
2023/04/08 16:12:00;;;;;;;15.30;11.70;;;;;;;-145.79;45.83;78233.69;5308270;28;20020;-82
2023/04/08 16:14:34;;;;;;;13.60;12.13;;;;;;;-145.79;45.48;78223.09;5309087;28;20028;-82
2023/04/08 16:17:06;;;;;;;13.35;12.15;;;;;;;-145.79;45.31;78246.41;5313439;28;20444;-82
2023/04/08 16:19:37;;;;;;;13.18;11.98;;;;;;;-145.79;45.27;78250.66;5316922;28;20035;-84
2023/04/08 16:22:08;;;;;;;12.68;11.48;;;;;;;-145.79;45.02;78271.84;5313819;28;20158;-84
2023/04/08 16:24:44;;;;;;;13.27;11.75;;;;;;;-145.79;44.75;78282.47;5307452;28;20039;-82
2023/04/08 16:27:15;;;;;;;;;;;;;;;-145.79;45.67;78263.38;5310937;28;20024;-83
2023/04/08 16:29:47;;;;;;;11.63;10.52;;;;;;;-145.79;44.27;78288.81;5310650;28;20416;-82
2023/04/08 16:32:18;;;;;;;13.40;12.07;;;;;;;-145.79;45.50;78293.06;5295849;28;20032;-83
2023/04/08 16:34:50;;;;;;;12.52;10.55;;;;;;;-145.79;45.99;78280.34;5286374;28;20509;-75
2023/04/08 16:37:21;;;;;;;11.07;10.00;;;;;;;-145.79;45.60;78290.94;5284582;28;20384;-77
2023/04/08 16:39:52;;;;;;;12.82;9.60;;;;;;;-145.79;46.45;78280.34;5288556;28;20036;-81
2023/04/08 16:42:24;;;;;;;10.23;8.85;;;;;;;-145.79;45.41;78297.31;5307660;28;20051;-82
2023/04/08 16:44:58;;;;;;;10.20;8.82;;;;;;;-145.79;46.28;78295.19;5306449;28;20036;-75
2023/04/08 16:47:30;;;;;;;9.77;8.87;;;;;;;-145.79;46.42;78299.41;5306944;28;20026;-82
2023/04/08 16:50:02;;;;;;;10.23;9.32;;;;;;;-145.79;45.59;78316.38;5310513;28;20020;-81
2023/04/08 16:52:33;;;;;;;10.15;8.77;;;;;;;-145.79;46.39;78316.38;5311235;28;20042;-82
